sensor_id;sensor_type;location;lat;lon;timestamp;P1;durP1;ratioP1;P2;durP2;ratioP2
50555;SDS011;36508;52.512;13.450;2023-03-22T00:01:45;20.20;;;18.43;;
50555;SDS011;36508;52.512;13.450;2023-03-22T00:04:13;19.23;;;17.63;;
50555;SDS011;36508;52.512;13.450;2023-03-22T00:06:39;17.43;;;15.93;;
50555;SDS011;36508;52.512;13.450;2023-03-22T00:09:11;21.13;;;18.80;;
50555;SDS011;36508;52.512;13.450;2023-03-22T00:11:42;19.63;;;16.63;;
50555;SDS011;36508;52.512;13.450;2023-03-22T00:14:10;20.57;;;17.83;;
50555;SDS011;36508;52.512;13.450;2023-03-22T00:16:40;19.53;;;17.73;;
50555;SDS011;36508;52.512;13.450;2023-03-22T00:19:06;19.80;;;17.83;;
50555;SDS011;36508;52.512;13.450;2023-03-22T00:21:32;20.73;;;18.33;;
50555;SDS011;36508;52.512;13.450;2023-03-22T00:24:01;21.80;;;17.47;;
50555;SDS011;36508;52.512;13.450;2023-03-22T00:26:26;20.60;;;18.57;;
50555;SDS011;36508;52.512;13.450;2023-03-22T00:28:52;20.93;;;18.70;;
50555;SDS011;36508;52.512;13.450;2023-03-22T00:31:18;17.40;;;15.70;;
50555;SDS011;36508;52.512;13.450;2023-03-22T00:33:43;18.77;;;16.77;;
50555;SDS011;36508;52.512;13.450;2023-03-22T00:36:10;18.80;;;17.10;;
50555;SDS011;36508;52.512;13.450;2023-03-22T00:38:36;20.40;;;18.50;;
50555;SDS011;36508;52.512;13.450;2023-03-22T00:41:03;20.40;;;18.40;;
50555;SDS011;36508;52.512;13.450;2023-03-22T00:43:30;18.43;;;16.73;;
50555;SDS011;36508;52.512;13.450;2023-03-22T00:45:56;20.13;;;17.47;;
50555;SDS011;36508;52.512;13.450;2023-03-22T00:48:21;19.70;;;17.90;;
50555;SDS011;36508;52.512;13.450;2023-03-22T00:50:47;18.83;;;17.30;;
50555;SDS011;36508;52.512;13.450;2023-03-22T00:53:13;18.97;;;17.10;;
50555;SDS011;36508;52.512;13.450;2023-03-22T00:55:39;19.37;;;17.80;;
50555;SDS011;36508;52.512;13.450;2023-03-22T00:58:04;19.87;;;18.30;;
50555;SDS011;36508;52.512;13.450;2023-03-22T01:00:30;18.70;;;16.80;;
50555;SDS011;36508;52.512;13.450;2023-03-22T01:02:57;24.37;;;18.53;;
50555;SDS011;36508;52.512;13.450;2023-03-22T01:05:24;22.33;;;20.10;;
50555;SDS011;36508;52.512;13.450;2023-03-22T01:07:50;18.47;;;16.53;;
50555;SDS011;36508;52.512;13.450;2023-03-22T01:10:16;18.83;;;17.20;;
50555;SDS011;36508;52.512;13.450;2023-03-22T01:12:42;22.30;;;19.13;;
50555;SDS011;36508;52.512;13.450;2023-03-22T01:15:09;20.23;;;18.43;;
50555;SDS011;36508;52.512;13.450;2023-03-22T01:17:35;18.53;;;16.20;;
50555;SDS011;36508;52.512;13.450;2023-03-22T01:20:02;20.47;;;18.27;;
50555;SDS011;36508;52.512;13.450;2023-03-22T01:22:29;18.07;;;16.50;;
50555;SDS011;36508;52.512;13.450;2023-03-22T01:24:55;22.83;;;19.23;;
50555;SDS011;36508;52.512;13.450;2023-03-22T01:27:21;19.30;;;17.73;;
50555;SDS011;36508;52.512;13.450;2023-03-22T01:29:46;18.43;;;16.53;;
50555;SDS011;36508;52.512;13.450;2023-03-22T01:32:12;20.97;;;19.07;;
50555;SDS011;36508;52.512;13.450;2023-03-22T01:34:38;20.23;;;18.27;;
50555;SDS011;36508;52.512;13.450;2023-03-22T01:37:03;20.97;;;18.97;;
50555;SDS011;36508;52.512;13.450;2023-03-22T01:39:29;21.47;;;18.87;;
50555;SDS011;36508;52.512;13.450;2023-03-22T01:41:56;19.40;;;17.60;;
50555;SDS011;36508;52.512;13.450;2023-03-22T01:44:22;20.47;;;18.40;;
50555;SDS011;36508;52.512;13.450;2023-03-22T01:46:49;19.83;;;17.73;;
50555;SDS011;36508;52.512;13.450;2023-03-22T01:49:21;18.47;;;16.77;;
50555;SDS011;36508;52.512;13.450;2023-03-22T01:51:51;20.63;;;18.47;;
50555;SDS011;36508;52.512;13.450;2023-03-22T01:54:41;20.33;;;18.47;;
50555;SDS011;36508;52.512;13.450;2023-03-22T01:57:10;21.73;;;19.67;;
50555;SDS011;36508;52.512;13.450;2023-03-22T01:59:37;19.13;;;17.23;;
50555;SDS011;36508;52.512;13.450;2023-03-22T02:02:04;20.77;;;18.90;;
50555;SDS011;36508;52.512;13.450;2023-03-22T02:04:31;20.20;;;18.30;;
50555;SDS011;36508;52.512;13.450;2023-03-22T02:07:06;20.03;;;18.23;;
50555;SDS011;36508;52.512;13.450;2023-03-22T02:09:39;18.87;;;16.97;;
50555;SDS011;36508;52.512;13.450;2023-03-22T02:31:34;18.40;;;16.63;;
50555;SDS011;36508;52.512;13.450;2023-03-22T02:37:18;19.47;;;17.50;;
50555;SDS011;36508;52.512;13.450;2023-03-22T02:45:45;18.17;;;16.57;;
50555;SDS011;36508;52.512;13.450;2023-03-22T02:48:30;20.30;;;18.40;;
50555;SDS011;36508;52.512;13.450;2023-03-22T02:51:02;19.10;;;17.30;;
50555;SDS011;36508;52.512;13.450;2023-03-22T02:53:46;20.60;;;18.70;;
50555;SDS011;36508;52.512;13.450;2023-03-22T02:59:20;18.07;;;16.47;;
50555;SDS011;36508;52.512;13.450;2023-03-22T03:01:50;18.87;;;17.07;;
50555;SDS011;36508;52.512;13.450;2023-03-22T03:04:20;17.87;;;16.17;;
50555;SDS011;36508;52.512;13.450;2023-03-22T03:06:52;23.53;;;17.57;;
50555;SDS011;36508;52.512;13.450;2023-03-22T03:09:23;17.37;;;15.77;;
50555;SDS011;36508;52.512;13.450;2023-03-22T03:11:51;19.40;;;17.53;;
50555;SDS011;36508;52.512;13.450;2023-03-22T03:14:30;18.90;;;17.10;;
50555;SDS011;36508;52.512;13.450;2023-03-22T03:18:02;20.00;;;18.00;;
50555;SDS011;36508;52.512;13.450;2023-03-22T03:23:03;18.67;;;16.90;;
50555;SDS011;36508;52.512;13.450;2023-03-22T03:25:44;19.53;;;17.83;;
50555;SDS011;36508;52.512;13.450;2023-03-22T03:36:32;21.37;;;19.27;;
50555;SDS011;36508;52.512;13.450;2023-03-22T03:39:02;23.10;;;20.73;;
50555;SDS011;36508;52.512;13.450;2023-03-22T03:41:29;21.53;;;19.33;;
50555;SDS011;36508;52.512;13.450;2023-03-22T03:43:56;19.60;;;17.90;;
50555;SDS011;36508;52.512;13.450;2023-03-22T03:46:23;20.47;;;18.47;;
50555;SDS011;36508;52.512;13.450;2023-03-22T03:48:49;18.93;;;17.30;;
50555;SDS011;36508;52.512;13.450;2023-03-22T03:51:16;20.10;;;18.30;;
50555;SDS011;36508;52.512;13.450;2023-03-22T03:53:42;21.60;;;19.30;;
50555;SDS011;36508;52.512;13.450;2023-03-22T03:56:08;19.50;;;17.63;;
50555;SDS011;36508;52.512;13.450;2023-03-22T03:58:34;19.63;;;17.83;;
50555;SDS011;36508;52.512;13.450;2023-03-22T04:01:00;19.33;;;17.33;;
50555;SDS011;36508;52.512;13.450;2023-03-22T04:03:27;18.57;;;16.77;;
50555;SDS011;36508;52.512;13.450;2023-03-22T04:05:54;22.20;;;18.90;;
50555;SDS011;36508;52.512;13.450;2023-03-22T04:08:19;19.70;;;17.80;;
50555;SDS011;36508;52.512;13.450;2023-03-22T04:10:49;19.90;;;17.90;;
50555;SDS011;36508;52.512;13.450;2023-03-22T04:13:18;18.20;;;16.43;;
50555;SDS011;36508;52.512;13.450;2023-03-22T04:15:54;19.13;;;17.33;;
50555;SDS011;36508;52.512;13.450;2023-03-22T04:18:22;18.17;;;16.50;;
50555;SDS011;36508;52.512;13.450;2023-03-22T04:20:48;16.17;;;14.77;;
50555;SDS011;36508;52.512;13.450;2023-03-22T04:23:17;21.03;;;19.07;;
50555;SDS011;36508;52.512;13.450;2023-03-22T04:25:46;17.57;;;15.77;;
50555;SDS011;36508;52.512;13.450;2023-03-22T04:28:14;19.20;;;17.23;;
50555;SDS011;36508;52.512;13.450;2023-03-22T04:30:40;17.43;;;15.83;;
50555;SDS011;36508;52.512;13.450;2023-03-22T04:33:09;19.87;;;18.00;;
50555;SDS011;36508;52.512;13.450;2023-03-22T04:35:35;17.50;;;15.73;;
50555;SDS011;36508;52.512;13.450;2023-03-22T04:38:01;18.33;;;16.63;;
50555;SDS011;36508;52.512;13.450;2023-03-22T04:40:27;16.47;;;14.97;;
50555;SDS011;36508;52.512;13.450;2023-03-22T04:42:55;18.07;;;16.43;;
50555;SDS011;36508;52.512;13.450;2023-03-22T04:45:22;19.90;;;17.10;;
50555;SDS011;36508;52.512;13.450;2023-03-22T04:47:48;17.00;;;15.30;;
50555;SDS011;36508;52.512;13.450;2023-03-22T04:50:14;17.60;;;15.90;;
50555;SDS011;36508;52.512;13.450;2023-03-22T04:52:39;17.87;;;16.37;;
50555;SDS011;36508;52.512;13.450;2023-03-22T04:55:05;17.97;;;16.47;;
50555;SDS011;36508;52.512;13.450;2023-03-22T04:57:31;17.57;;;15.93;;
50555;SDS011;36508;52.512;13.450;2023-03-22T04:59:58;17.00;;;15.30;;
50555;SDS011;36508;52.512;13.450;2023-03-22T05:02:24;21.10;;;17.83;;
50555;SDS011;36508;52.512;13.450;2023-03-22T05:04:49;15.90;;;14.40;;
50555;SDS011;36508;52.512;13.450;2023-03-22T05:07:15;17.30;;;15.60;;
50555;SDS011;36508;52.512;13.450;2023-03-22T05:09:41;18.57;;;16.70;;
50555;SDS011;36508;52.512;13.450;2023-03-22T05:12:06;16.53;;;14.97;;
50555;SDS011;36508;52.512;13.450;2023-03-22T05:14:35;18.47;;;16.60;;
50555;SDS011;36508;52.512;13.450;2023-03-22T05:17:16;19.37;;;17.77;;
50555;SDS011;36508;52.512;13.450;2023-03-22T05:19:42;23.10;;;20.80;;
50555;SDS011;36508;52.512;13.450;2023-03-22T05:22:07;20.30;;;18.27;;
50555;SDS011;36508;52.512;13.450;2023-03-22T05:24:35;17.83;;;16.30;;
50555;SDS011;36508;52.512;13.450;2023-03-22T05:27:01;16.43;;;14.90;;
50555;SDS011;36508;52.512;13.450;2023-03-22T05:29:27;19.27;;;17.10;;
50555;SDS011;36508;52.512;13.450;2023-03-22T05:31:53;24.20;;;20.23;;
50555;SDS011;36508;52.512;13.450;2023-03-22T05:34:19;19.77;;;17.77;;
50555;SDS011;36508;52.512;13.450;2023-03-22T05:36:47;20.33;;;18.27;;
50555;SDS011;36508;52.512;13.450;2023-03-22T05:39:15;18.03;;;16.23;;
50555;SDS011;36508;52.512;13.450;2023-03-22T05:41:41;19.00;;;17.30;;
50555;SDS011;36508;52.512;13.450;2023-03-22T05:44:12;18.20;;;15.27;;
50555;SDS011;36508;52.512;13.450;2023-03-22T05:46:48;19.60;;;16.53;;
50555;SDS011;36508;52.512;13.450;2023-03-22T05:49:16;18.70;;;17.00;;
50555;SDS011;36508;52.512;13.450;2023-03-22T05:51:50;18.67;;;16.90;;
50555;SDS011;36508;52.512;13.450;2023-03-22T05:54:16;20.13;;;18.03;;
50555;SDS011;36508;52.512;13.450;2023-03-22T05:56:41;18.77;;;17.13;;
50555;SDS011;36508;52.512;13.450;2023-03-22T05:59:08;24.77;;;22.57;;
50555;SDS011;36508;52.512;13.450;2023-03-22T06:01:33;19.60;;;17.50;;
50555;SDS011;36508;52.512;13.450;2023-03-22T06:03:59;19.77;;;17.70;;
50555;SDS011;36508;52.512;13.450;2023-03-22T06:06:25;21.00;;;19.07;;
50555;SDS011;36508;52.512;13.450;2023-03-22T06:08:52;19.37;;;17.43;;
50555;SDS011;36508;52.512;13.450;2023-03-22T06:14:47;21.30;;;19.47;;
50555;SDS011;36508;52.512;13.450;2023-03-22T06:20:07;18.03;;;16.33;;
50555;SDS011;36508;52.512;13.450;2023-03-22T06:22:52;20.17;;;18.30;;
50555;SDS011;36508;52.512;13.450;2023-03-22T06:25:17;18.70;;;17.00;;
50555;SDS011;36508;52.512;13.450;2023-03-22T06:27:52;21.13;;;19.00;;
50555;SDS011;36508;52.512;13.450;2023-03-22T06:30:28;20.30;;;18.20;;
50555;SDS011;36508;52.512;13.450;2023-03-22T06:32:54;22.33;;;20.03;;
50555;SDS011;36508;52.512;13.450;2023-03-22T06:35:21;20.23;;;18.23;;
50555;SDS011;36508;52.512;13.450;2023-03-22T06:37:46;18.67;;;16.80;;
50555;SDS011;36508;52.512;13.450;2023-03-22T06:40:12;21.53;;;19.37;;
50555;SDS011;36508;52.512;13.450;2023-03-22T06:42:40;20.13;;;17.67;;
50555;SDS011;36508;52.512;13.450;2023-03-22T06:45:15;20.57;;;18.43;;
50555;SDS011;36508;52.512;13.450;2023-03-22T06:51:20;22.80;;;20.53;;
50555;SDS011;36508;52.512;13.450;2023-03-22T06:56:47;21.03;;;19.00;;
50555;SDS011;36508;52.512;13.450;2023-03-22T06:59:40;19.67;;;17.83;;
50555;SDS011;36508;52.512;13.450;2023-03-22T07:02:10;20.63;;;18.53;;
50555;SDS011;36508;52.512;13.450;2023-03-22T07:04:36;19.37;;;17.60;;
50555;SDS011;36508;52.512;13.450;2023-03-22T07:07:02;19.63;;;17.70;;
50555;SDS011;36508;52.512;13.450;2023-03-22T07:09:28;21.50;;;17.90;;
50555;SDS011;36508;52.512;13.450;2023-03-22T07:11:53;17.77;;;16.10;;
50555;SDS011;36508;52.512;13.450;2023-03-22T07:14:19;18.20;;;15.50;;
50555;SDS011;36508;52.512;13.450;2023-03-22T07:16:45;18.53;;;16.90;;
50555;SDS011;36508;52.512;13.450;2023-03-22T07:19:10;19.50;;;17.70;;
50555;SDS011;36508;52.512;13.450;2023-03-22T07:21:36;19.17;;;17.53;;
50555;SDS011;36508;52.512;13.450;2023-03-22T07:24:02;21.40;;;19.10;;
50555;SDS011;36508;52.512;13.450;2023-03-22T07:26:28;20.43;;;16.07;;
50555;SDS011;36508;52.512;13.450;2023-03-22T07:28:54;20.37;;;18.20;;
50555;SDS011;36508;52.512;13.450;2023-03-22T07:31:20;18.17;;;16.60;;
50555;SDS011;36508;52.512;13.450;2023-03-22T07:33:46;21.73;;;19.60;;
50555;SDS011;36508;52.512;13.450;2023-03-22T07:36:12;16.70;;;15.10;;
50555;SDS011;36508;52.512;13.450;2023-03-22T07:38:38;19.77;;;17.87;;
50555;SDS011;36508;52.512;13.450;2023-03-22T07:41:04;17.50;;;15.80;;
50555;SDS011;36508;52.512;13.450;2023-03-22T07:43:30;17.00;;;15.47;;
50555;SDS011;36508;52.512;13.450;2023-03-22T07:45:56;16.70;;;13.93;;
50555;SDS011;36508;52.512;13.450;2023-03-22T07:48:22;16.33;;;14.77;;
50555;SDS011;36508;52.512;13.450;2023-03-22T07:50:48;18.90;;;17.10;;
50555;SDS011;36508;52.512;13.450;2023-03-22T07:53:13;18.07;;;16.47;;
50555;SDS011;36508;52.512;13.450;2023-03-22T07:55:39;18.17;;;16.27;;
50555;SDS011;36508;52.512;13.450;2023-03-22T07:58:08;23.27;;;17.27;;
50555;SDS011;36508;52.512;13.450;2023-03-22T08:00:34;19.20;;;17.30;;
50555;SDS011;36508;52.512;13.450;2023-03-22T08:03:00;16.97;;;15.23;;
50555;SDS011;36508;52.512;13.450;2023-03-22T08:05:26;15.47;;;14.07;;
50555;SDS011;36508;52.512;13.450;2023-03-22T08:07:52;18.27;;;16.40;;
50555;SDS011;36508;52.512;13.450;2023-03-22T08:10:18;17.90;;;15.17;;
50555;SDS011;36508;52.512;13.450;2023-03-22T08:12:44;16.20;;;14.73;;
50555;SDS011;36508;52.512;13.450;2023-03-22T08:15:13;17.97;;;16.23;;
50555;SDS011;36508;52.512;13.450;2023-03-22T08:17:39;16.53;;;14.93;;
50555;SDS011;36508;52.512;13.450;2023-03-22T08:20:05;18.20;;;16.40;;
50555;SDS011;36508;52.512;13.450;2023-03-22T08:22:33;17.23;;;15.60;;
50555;SDS011;36508;52.512;13.450;2023-03-22T08:25:00;15.80;;;14.40;;
50555;SDS011;36508;52.512;13.450;2023-03-22T08:27:29;15.93;;;14.40;;
50555;SDS011;36508;52.512;13.450;2023-03-22T08:29:55;15.13;;;13.77;;
50555;SDS011;36508;52.512;13.450;2023-03-22T08:32:22;15.57;;;14.10;;
50555;SDS011;36508;52.512;13.450;2023-03-22T08:34:48;14.50;;;13.00;;
50555;SDS011;36508;52.512;13.450;2023-03-22T08:37:15;13.83;;;12.63;;
50555;SDS011;36508;52.512;13.450;2023-03-22T08:39:44;15.30;;;13.80;;
50555;SDS011;36508;52.512;13.450;2023-03-22T08:42:10;13.77;;;12.57;;
50555;SDS011;36508;52.512;13.450;2023-03-22T08:44:35;13.83;;;12.53;;
50555;SDS011;36508;52.512;13.450;2023-03-22T08:47:01;13.73;;;12.33;;
50555;SDS011;36508;52.512;13.450;2023-03-22T08:49:27;15.00;;;11.93;;
50555;SDS011;36508;52.512;13.450;2023-03-22T08:51:53;13.73;;;12.43;;
50555;SDS011;36508;52.512;13.450;2023-03-22T08:54:18;14.83;;;13.43;;
50555;SDS011;36508;52.512;13.450;2023-03-22T08:56:44;13.23;;;12.13;;
50555;SDS011;36508;52.512;13.450;2023-03-22T08:59:12;13.20;;;12.20;;
50555;SDS011;36508;52.512;13.450;2023-03-22T09:01:37;13.60;;;12.07;;
50555;SDS011;36508;52.512;13.450;2023-03-22T09:04:03;12.87;;;11.80;;
50555;SDS011;36508;52.512;13.450;2023-03-22T09:06:29;13.93;;;12.70;;
50555;SDS011;36508;52.512;13.450;2023-03-22T09:08:55;13.53;;;12.30;;
50555;SDS011;36508;52.512;13.450;2023-03-22T09:11:21;12.87;;;11.77;;
50555;SDS011;36508;52.512;13.450;2023-03-22T09:13:48;13.80;;;12.23;;
50555;SDS011;36508;52.512;13.450;2023-03-22T09:16:14;12.10;;;11.17;;
50555;SDS011;36508;52.512;13.450;2023-03-22T09:18:41;12.30;;;11.40;;
50555;SDS011;36508;52.512;13.450;2023-03-22T09:21:07;12.00;;;11.00;;
50555;SDS011;36508;52.512;13.450;2023-03-22T09:23:36;14.10;;;12.67;;
50555;SDS011;36508;52.512;13.450;2023-03-22T09:26:04;11.10;;;10.10;;
50555;SDS011;36508;52.512;13.450;2023-03-22T09:28:31;12.20;;;11.00;;
50555;SDS011;36508;52.512;13.450;2023-03-22T09:31:04;11.73;;;10.67;;
50555;SDS011;36508;52.512;13.450;2023-03-22T09:33:32;12.77;;;11.77;;
50555;SDS011;36508;52.512;13.450;2023-03-22T09:35:58;11.63;;;10.53;;
50555;SDS011;36508;52.512;13.450;2023-03-22T09:38:24;13.20;;;12.10;;
50555;SDS011;36508;52.512;13.450;2023-03-22T09:40:55;12.53;;;11.63;;
50555;SDS011;36508;52.512;13.450;2023-03-22T09:43:33;12.67;;;11.43;;
50555;SDS011;36508;52.512;13.450;2023-03-22T09:46:02;13.30;;;12.20;;
50555;SDS011;36508;52.512;13.450;2023-03-22T09:48:33;14.87;;;13.40;;
50555;SDS011;36508;52.512;13.450;2023-03-22T09:51:01;12.70;;;11.50;;
50555;SDS011;36508;52.512;13.450;2023-03-22T09:53:28;11.37;;;10.37;;
50555;SDS011;36508;52.512;13.450;2023-03-22T09:56:07;11.40;;;10.50;;
50555;SDS011;36508;52.512;13.450;2023-03-22T10:01:57;10.43;;;9.67;;
50555;SDS011;36508;52.512;13.450;2023-03-22T10:07:36;11.50;;;10.43;;
50555;SDS011;36508;52.512;13.450;2023-03-22T10:10:11;11.37;;;10.37;;
50555;SDS011;36508;52.512;13.450;2023-03-22T10:15:16;10.77;;;9.87;;
50555;SDS011;36508;52.512;13.450;2023-03-22T10:17:51;15.73;;;12.67;;
50555;SDS011;36508;52.512;13.450;2023-03-22T10:23:10;12.30;;;11.37;;
50555;SDS011;36508;52.512;13.450;2023-03-22T10:25:40;11.60;;;10.70;;
50555;SDS011;36508;52.512;13.450;2023-03-22T10:28:15;9.87;;;9.03;;
50555;SDS011;36508;52.512;13.450;2023-03-22T10:30:46;11.87;;;10.87;;
50555;SDS011;36508;52.512;13.450;2023-03-22T10:35:59;10.83;;;9.73;;
50555;SDS011;36508;52.512;13.450;2023-03-22T10:38:28;11.57;;;10.57;;
50555;SDS011;36508;52.512;13.450;2023-03-22T10:40:56;14.73;;;12.97;;
50555;SDS011;36508;52.512;13.450;2023-03-22T10:43:29;12.70;;;11.60;;
50555;SDS011;36508;52.512;13.450;2023-03-22T10:46:06;9.17;;;8.57;;
50555;SDS011;36508;52.512;13.450;2023-03-22T10:48:39;10.87;;;9.97;;
50555;SDS011;36508;52.512;13.450;2023-03-22T10:51:10;11.27;;;9.03;;
50555;SDS011;36508;52.512;13.450;2023-03-22T10:54:00;10.33;;;9.53;;
50555;SDS011;36508;52.512;13.450;2023-03-22T10:56:27;8.90;;;8.10;;
50555;SDS011;36508;52.512;13.450;2023-03-22T10:58:53;8.57;;;7.93;;
50555;SDS011;36508;52.512;13.450;2023-03-22T11:01:33;10.00;;;8.40;;
50555;SDS011;36508;52.512;13.450;2023-03-22T11:04:13;9.20;;;8.50;;
50555;SDS011;36508;52.512;13.450;2023-03-22T11:06:51;8.17;;;7.57;;
50555;SDS011;36508;52.512;13.450;2023-03-22T11:16:57;7.43;;;6.73;;
50555;SDS011;36508;52.512;13.450;2023-03-22T11:19:31;6.90;;;6.40;;
50555;SDS011;36508;52.512;13.450;2023-03-22T11:21:58;7.40;;;6.80;;
50555;SDS011;36508;52.512;13.450;2023-03-22T11:24:29;5.80;;;5.40;;
50555;SDS011;36508;52.512;13.450;2023-03-22T11:29:44;7.97;;;7.30;;
50555;SDS011;36508;52.512;13.450;2023-03-22T11:34:46;8.00;;;7.23;;
50555;SDS011;36508;52.512;13.450;2023-03-22T11:37:15;8.43;;;7.70;;
50555;SDS011;36508;52.512;13.450;2023-03-22T11:39:44;8.40;;;7.90;;
50555;SDS011;36508;52.512;13.450;2023-03-22T11:42:16;5.80;;;5.40;;
50555;SDS011;36508;52.512;13.450;2023-03-22T11:44:44;5.27;;;4.90;;
50555;SDS011;36508;52.512;13.450;2023-03-22T11:47:10;4.67;;;4.23;;
50555;SDS011;36508;52.512;13.450;2023-03-22T11:49:47;5.73;;;5.23;;
50555;SDS011;36508;52.512;13.450;2023-03-22T11:52:20;6.80;;;4.40;;
50555;SDS011;36508;52.512;13.450;2023-03-22T11:54:49;5.07;;;4.67;;
50555;SDS011;36508;52.512;13.450;2023-03-22T11:57:18;6.10;;;4.83;;
50555;SDS011;36508;52.512;13.450;2023-03-22T11:59:49;5.07;;;4.57;;
50555;SDS011;36508;52.512;13.450;2023-03-22T12:02:26;6.70;;;6.07;;
50555;SDS011;36508;52.512;13.450;2023-03-22T12:04:59;7.30;;;6.70;;
50555;SDS011;36508;52.512;13.450;2023-03-22T12:07:31;6.07;;;5.57;;
50555;SDS011;36508;52.512;13.450;2023-03-22T12:10:05;9.43;;;8.53;;
50555;SDS011;36508;52.512;13.450;2023-03-22T12:12:52;4.70;;;4.30;;
50555;SDS011;36508;52.512;13.450;2023-03-22T12:20:33;7.77;;;5.13;;
50555;SDS011;36508;52.512;13.450;2023-03-22T12:22:59;6.77;;;6.03;;
50555;SDS011;36508;52.512;13.450;2023-03-22T12:25:28;6.83;;;6.30;;
50555;SDS011;36508;52.512;13.450;2023-03-22T12:27:57;8.47;;;4.70;;
50555;SDS011;36508;52.512;13.450;2023-03-22T12:30:32;6.50;;;4.80;;
50555;SDS011;36508;52.512;13.450;2023-03-22T12:33:10;6.80;;;6.27;;
50555;SDS011;36508;52.512;13.450;2023-03-22T12:35:40;6.40;;;5.90;;
50555;SDS011;36508;52.512;13.450;2023-03-22T12:38:22;6.37;;;5.73;;
50555;SDS011;36508;52.512;13.450;2023-03-22T12:40:49;4.77;;;4.47;;
50555;SDS011;36508;52.512;13.450;2023-03-22T12:46:16;6.60;;;5.93;;
50555;SDS011;36508;52.512;13.450;2023-03-22T12:48:49;5.87;;;5.37;;
50555;SDS011;36508;52.512;13.450;2023-03-22T12:51:18;6.17;;;5.57;;
50555;SDS011;36508;52.512;13.450;2023-03-22T12:53:45;5.80;;;5.40;;
50555;SDS011;36508;52.512;13.450;2023-03-22T12:56:15;5.97;;;5.53;;
50555;SDS011;36508;52.512;13.450;2023-03-22T12:58:48;4.67;;;4.37;;
50555;SDS011;36508;52.512;13.450;2023-03-22T13:03:47;6.50;;;5.07;;
50555;SDS011;36508;52.512;13.450;2023-03-22T13:06:53;5.73;;;5.33;;
50555;SDS011;36508;52.512;13.450;2023-03-22T13:30:52;4.13;;;3.83;;
50555;SDS011;36508;52.512;13.450;2023-03-22T13:43:51;3.83;;;2.83;;
50555;SDS011;36508;52.512;13.450;2023-03-22T13:51:13;3.70;;;3.40;;
50555;SDS011;36508;52.512;13.450;2023-03-22T13:53:40;3.03;;;2.83;;
50555;SDS011;36508;52.512;13.450;2023-03-22T13:56:22;2.77;;;2.50;;
50555;SDS011;36508;52.512;13.450;2023-03-22T13:59:27;3.33;;;2.70;;
50555;SDS011;36508;52.512;13.450;2023-03-22T14:04:57;4.87;;;3.80;;
50555;SDS011;36508;52.512;13.450;2023-03-22T14:07:33;3.50;;;3.20;;
50555;SDS011;36508;52.512;13.450;2023-03-22T14:10:12;4.40;;;3.13;;
50555;SDS011;36508;52.512;13.450;2023-03-22T14:15:40;3.70;;;3.40;;
50555;SDS011;36508;52.512;13.450;2023-03-22T14:21:00;3.20;;;3.00;;
50555;SDS011;36508;52.512;13.450;2023-03-22T14:23:38;4.43;;;4.07;;
50555;SDS011;36508;52.512;13.450;2023-03-22T14:26:14;4.57;;;4.13;;
50555;SDS011;36508;52.512;13.450;2023-03-22T14:28:42;4.50;;;4.10;;
50555;SDS011;36508;52.512;13.450;2023-03-22T14:31:26;3.17;;;2.70;;
50555;SDS011;36508;52.512;13.450;2023-03-22T14:33:53;5.63;;;2.90;;
50555;SDS011;36508;52.512;13.450;2023-03-22T14:36:24;3.00;;;2.73;;
50555;SDS011;36508;52.512;13.450;2023-03-22T14:38:53;3.40;;;2.70;;
50555;SDS011;36508;52.512;13.450;2023-03-22T14:41:22;2.90;;;2.70;;
50555;SDS011;36508;52.512;13.450;2023-03-22T14:43:49;2.83;;;2.67;;
50555;SDS011;36508;52.512;13.450;2023-03-22T14:46:22;3.23;;;3.10;;
50555;SDS011;36508;52.512;13.450;2023-03-22T14:48:51;2.80;;;2.70;;
50555;SDS011;36508;52.512;13.450;2023-03-22T14:51:22;3.00;;;2.63;;
50555;SDS011;36508;52.512;13.450;2023-03-22T14:53:55;2.67;;;2.43;;
50555;SDS011;36508;52.512;13.450;2023-03-22T14:56:25;3.03;;;2.83;;
50555;SDS011;36508;52.512;13.450;2023-03-22T14:58:54;3.70;;;3.00;;
50555;SDS011;36508;52.512;13.450;2023-03-22T15:01:29;4.07;;;3.77;;
50555;SDS011;36508;52.512;13.450;2023-03-22T15:03:58;3.10;;;3.00;;
50555;SDS011;36508;52.512;13.450;2023-03-22T15:06:27;4.33;;;4.10;;
50555;SDS011;36508;52.512;13.450;2023-03-22T15:08:54;4.00;;;3.40;;
50555;SDS011;36508;52.512;13.450;2023-03-22T15:11:34;3.10;;;2.80;;
50555;SDS011;36508;52.512;13.450;2023-03-22T15:14:04;2.87;;;2.67;;
50555;SDS011;36508;52.512;13.450;2023-03-22T15:16:34;3.17;;;2.97;;
50555;SDS011;36508;52.512;13.450;2023-03-22T15:19:04;3.63;;;3.33;;
50555;SDS011;36508;52.512;13.450;2023-03-22T15:21:33;3.37;;;2.57;;
50555;SDS011;36508;52.512;13.450;2023-03-22T15:26:57;3.30;;;3.00;;
50555;SDS011;36508;52.512;13.450;2023-03-22T15:29:26;2.83;;;2.63;;
50555;SDS011;36508;52.512;13.450;2023-03-22T15:31:55;4.50;;;3.50;;
50555;SDS011;36508;52.512;13.450;2023-03-22T15:34:23;2.77;;;1.93;;
50555;SDS011;36508;52.512;13.450;2023-03-22T15:36:51;2.33;;;2.23;;
50555;SDS011;36508;52.512;13.450;2023-03-22T15:39:24;3.10;;;2.80;;
50555;SDS011;36508;52.512;13.450;2023-03-22T15:42:17;6.97;;;3.27;;
50555;SDS011;36508;52.512;13.450;2023-03-22T15:45:00;5.43;;;4.20;;
50555;SDS011;36508;52.512;13.450;2023-03-22T15:47:51;3.30;;;3.10;;
50555;SDS011;36508;52.512;13.450;2023-03-22T15:50:20;6.67;;;3.00;;
50555;SDS011;36508;52.512;13.450;2023-03-22T15:52:47;3.67;;;3.47;;
50555;SDS011;36508;52.512;13.450;2023-03-22T15:55:15;3.47;;;2.90;;
50555;SDS011;36508;52.512;13.450;2023-03-22T15:57:48;5.43;;;3.60;;
50555;SDS011;36508;52.512;13.450;2023-03-22T16:02:59;4.53;;;3.63;;
50555;SDS011;36508;52.512;13.450;2023-03-22T16:05:46;4.93;;;3.73;;
50555;SDS011;36508;52.512;13.450;2023-03-22T16:08:13;4.57;;;3.53;;
50555;SDS011;36508;52.512;13.450;2023-03-22T16:10:40;5.70;;;4.43;;
50555;SDS011;36508;52.512;13.450;2023-03-22T16:15:46;3.60;;;3.30;;
50555;SDS011;36508;52.512;13.450;2023-03-22T16:18:14;5.50;;;3.20;;
50555;SDS011;36508;52.512;13.450;2023-03-22T16:20:41;2.57;;;2.33;;
50555;SDS011;36508;52.512;13.450;2023-03-22T16:23:12;3.33;;;3.13;;
50555;SDS011;36508;52.512;13.450;2023-03-22T16:25:40;3.37;;;3.17;;
50555;SDS011;36508;52.512;13.450;2023-03-22T16:28:08;5.90;;;4.40;;
50555;SDS011;36508;52.512;13.450;2023-03-22T16:30:36;5.40;;;3.87;;
50555;SDS011;36508;52.512;13.450;2023-03-22T16:33:03;3.90;;;3.60;;
50555;SDS011;36508;52.512;13.450;2023-03-22T16:35:29;13.30;;;9.13;;
50555;SDS011;36508;52.512;13.450;2023-03-22T16:37:56;5.50;;;4.97;;
50555;SDS011;36508;52.512;13.450;2023-03-22T16:40:24;3.87;;;2.77;;
50555;SDS011;36508;52.512;13.450;2023-03-22T16:42:55;4.73;;;4.20;;
50555;SDS011;36508;52.512;13.450;2023-03-22T16:45:29;2.90;;;2.70;;
50555;SDS011;36508;52.512;13.450;2023-03-22T16:47:56;11.70;;;7.57;;
50555;SDS011;36508;52.512;13.450;2023-03-22T16:50:24;2.10;;;1.90;;
50555;SDS011;36508;52.512;13.450;2023-03-22T16:52:51;2.57;;;2.33;;
50555;SDS011;36508;52.512;13.450;2023-03-22T16:55:18;4.30;;;2.50;;
50555;SDS011;36508;52.512;13.450;2023-03-22T16:57:54;2.47;;;1.87;;
50555;SDS011;36508;52.512;13.450;2023-03-22T17:00:20;2.60;;;2.00;;